DLH262 EDDH-ENBR
Flight info
| Callsign | DLH262 |
|---|---|
| Flight time | 1h 44m |
| Altitude | 38000 |
| Route | ELSOB3G/33 ELSOB Y348 OMWEG DCT BADOS DCT GIKOG DCT ATTUS P992 LINVI DCT BADAB |
| Aircraft | E195/M-SDE3GILORVW/S |
Departure
| Time | 2026-05-06 18:18 |
|---|---|
| Airport | Hamburg Helmut Schmidt Airport (EDDH) |
Arrival
| Time | 2026-05-06 20:02 |
|---|---|
| Airport | Bergen Airport, Flesland (ENBR) |
| Time | Latitude | Longitude | Altitude | Speed | Heading |
|---|---|---|---|---|---|
| 2026-05-06 17:43 | 53.63311 | 10.00047 | 49 ft | 0 kts | 316° |
| 2026-05-06 18:07 | 53.63309 | 10.00051 | 49 ft | 1 kts | 314° |
| 2026-05-06 18:08 | 53.63295 | 10.00075 | 46 ft | 3 kts | 297° |
| 2026-05-06 18:08 | 53.63284 | 10.00104 | 45 ft | 3 kts | 329° |
| 2026-05-06 18:08 | 53.63281 | 10.00100 | 45 ft | 0 kts | 290° |
| 2026-05-06 18:10 | 53.63280 | 10.00096 | 46 ft | 1 kts | 275° |
| 2026-05-06 18:10 | 53.63263 | 10.00076 | 48 ft | 6 kts | 211° |
| 2026-05-06 18:11 | 53.63210 | 10.00033 | 47 ft | 11 kts | 201° |
| 2026-05-06 18:11 | 53.63144 | 9.99958 | 46 ft | 13 kts | 226° |
| 2026-05-06 18:11 | 53.63090 | 9.99889 | 46 ft | 6 kts | 189° |
| 2026-05-06 18:11 | 53.63057 | 9.99901 | 44 ft | 5 kts | 148° |
| 2026-05-06 18:12 | 53.62997 | 9.99956 | 45 ft | 14 kts | 152° |
| 2026-05-06 18:12 | 53.62917 | 9.99969 | 42 ft | 9 kts | 231° |
| 2026-05-06 18:12 | 53.62897 | 9.99914 | 43 ft | 0 kts | 242° |
| 2026-05-06 18:13 | 53.62896 | 9.99912 | 44 ft | 1 kts | 242° |
| 2026-05-06 18:13 | 53.62894 | 9.99904 | 44 ft | 0 kts | 242° |
| 2026-05-06 18:16 | 53.62893 | 9.99903 | 44 ft | 0 kts | 242° |
| 2026-05-06 18:16 | 53.62885 | 9.99873 | 45 ft | 8 kts | 244° |
| 2026-05-06 18:16 | 53.62876 | 9.99740 | 44 ft | 13 kts | 304° |
| 2026-05-06 18:16 | 53.62888 | 9.99724 | 46 ft | 2 kts | 330° |
| 2026-05-06 18:17 | 53.62890 | 9.99722 | 46 ft | 0 kts | 333° |
| 2026-05-06 18:17 | 53.62891 | 9.99721 | 46 ft | 0 kts | 333° |
| 2026-05-06 18:17 | 53.62919 | 9.99697 | 46 ft | 16 kts | 333° |
| 2026-05-06 18:17 | 53.63286 | 9.99395 | 49 ft | 101 kts | 335° |
| 2026-05-06 18:18 | 53.64158 | 9.98673 | 61 ft | 175 kts | 339° |
| 2026-05-06 18:18 | 53.65327 | 9.97679 | 825 ft | 193 kts | 336° |
| 2026-05-06 18:18 | 53.66563 | 9.96637 | 1903 ft | 211 kts | 336° |
| 2026-05-06 18:18 | 53.67945 | 9.95319 | 2115 ft | 230 kts | 334° |
| 2026-05-06 18:19 | 53.69294 | 9.94003 | 1993 ft | 221 kts | 335° |
| 2026-05-06 18:19 | 53.70610 | 9.92769 | 1915 ft | 216 kts | 334° |
| 2026-05-06 18:19 | 53.71838 | 9.91197 | 2385 ft | 234 kts | 323° |
| 2026-05-06 18:19 | 53.73025 | 9.89219 | 3125 ft | 242 kts | 315° |
| 2026-05-06 18:20 | 53.74108 | 9.86886 | 3697 ft | 261 kts | 308° |
| 2026-05-06 18:20 | 53.75061 | 9.84208 | 4380 ft | 271 kts | 300° |
| 2026-05-06 18:20 | 53.75829 | 9.81277 | 5193 ft | 274 kts | 292° |
| 2026-05-06 18:20 | 53.76388 | 9.78174 | 5975 ft | 278 kts | 284° |
| 2026-05-06 18:21 | 53.76740 | 9.74956 | 6690 ft | 278 kts | 289° |
| 2026-05-06 18:21 | 53.77715 | 9.72192 | 7353 ft | 275 kts | 319° |
| 2026-05-06 18:21 | 53.79360 | 9.70653 | 8028 ft | 272 kts | 349° |
| 2026-05-06 18:21 | 53.81218 | 9.70449 | 8684 ft | 272 kts | 2° |
| 2026-05-06 18:22 | 53.83120 | 9.70591 | 9346 ft | 276 kts | 4° |
| 2026-05-06 18:22 | 53.85048 | 9.70823 | 10032 ft | 279 kts | 4° |
| 2026-05-06 18:22 | 53.87041 | 9.71104 | 10387 ft | 296 kts | 5° |
| 2026-05-06 18:22 | 53.89139 | 9.71421 | 10781 ft | 308 kts | 5° |
| 2026-05-06 18:23 | 53.91284 | 9.71756 | 11377 ft | 313 kts | 5° |
| 2026-05-06 18:23 | 53.93463 | 9.72109 | 11978 ft | 318 kts | 5° |
| 2026-05-06 18:23 | 53.95687 | 9.72481 | 12585 ft | 323 kts | 5° |
| 2026-05-06 18:23 | 53.97939 | 9.72868 | 13216 ft | 327 kts | 5° |
| 2026-05-06 18:24 | 54.00215 | 9.73270 | 13830 ft | 331 kts | 5° |
| 2026-05-06 18:24 | 54.02523 | 9.73695 | 14414 ft | 335 kts | 5° |
| 2026-05-06 18:24 | 54.04849 | 9.74135 | 15009 ft | 338 kts | 5° |
| 2026-05-06 18:24 | 54.07202 | 9.74587 | 15587 ft | 342 kts | 5° |
| 2026-05-06 18:25 | 54.09541 | 9.75037 | 16143 ft | 346 kts | 5° |
| 2026-05-06 18:25 | 54.11985 | 9.75502 | 16718 ft | 350 kts | 5° |
| 2026-05-06 18:25 | 54.14395 | 9.75957 | 17302 ft | 354 kts | 5° |
| 2026-05-06 18:25 | 54.16856 | 9.76416 | 17895 ft | 358 kts | 5° |
| 2026-05-06 18:26 | 54.19354 | 9.76876 | 18448 ft | 362 kts | 5° |
| 2026-05-06 18:26 | 54.21866 | 9.77338 | 19018 ft | 365 kts | 5° |
| 2026-05-06 18:26 | 54.24401 | 9.77809 | 19580 ft | 368 kts | 5° |
| 2026-05-06 18:26 | 54.26957 | 9.78295 | 20147 ft | 371 kts | 5° |
| 2026-05-06 18:27 | 54.29532 | 9.78794 | 20698 ft | 374 kts | 5° |
| 2026-05-06 18:27 | 54.32132 | 9.79310 | 21221 ft | 378 kts | 5° |
| 2026-05-06 18:27 | 54.34754 | 9.79842 | 21736 ft | 381 kts | 5° |
| 2026-05-06 18:27 | 54.37387 | 9.80388 | 22243 ft | 384 kts | 5° |
| 2026-05-06 18:28 | 54.40047 | 9.80952 | 22776 ft | 387 kts | 5° |
| 2026-05-06 18:28 | 54.42721 | 9.81531 | 23279 ft | 390 kts | 5° |
| 2026-05-06 18:28 | 54.45427 | 9.81761 | 23708 ft | 389 kts | 351° |
| 2026-05-06 18:28 | 54.47960 | 9.80463 | 24111 ft | 385 kts | 329° |
| 2026-05-06 18:29 | 54.50060 | 9.77614 | 24526 ft | 379 kts | 307° |
| 2026-05-06 18:29 | 54.51335 | 9.73758 | 24932 ft | 375 kts | 285° |
| 2026-05-06 18:29 | 54.51858 | 9.69396 | 25353 ft | 375 kts | 278° |
| 2026-05-06 18:29 | 54.52561 | 9.65026 | 25725 ft | 381 kts | 289° |
| 2026-05-06 18:30 | 54.53717 | 9.60909 | 26101 ft | 385 kts | 296° |
| 2026-05-06 18:30 | 54.55129 | 9.56962 | 26458 ft | 390 kts | 303° |
| 2026-05-06 18:30 | 54.56956 | 9.53453 | 26806 ft | 397 kts | 315° |
| 2026-05-06 18:30 | 54.59176 | 9.50563 | 27149 ft | 403 kts | 326° |
| 2026-05-06 18:31 | 54.61695 | 9.48385 | 27497 ft | 409 kts | 334° |
| 2026-05-06 18:31 | 54.64309 | 9.46574 | 27834 ft | 412 kts | 335° |
| 2026-05-06 18:31 | 54.67032 | 9.44752 | 28174 ft | 415 kts | 335° |
| 2026-05-06 18:31 | 54.69690 | 9.42942 | 28496 ft | 417 kts | 335° |
| 2026-05-06 18:32 | 54.72385 | 9.41072 | 28816 ft | 419 kts | 335° |
| 2026-05-06 18:32 | 54.75098 | 9.39170 | 29124 ft | 422 kts | 334° |
| 2026-05-06 18:32 | 54.77817 | 9.37251 | 29431 ft | 424 kts | 334° |
| 2026-05-06 18:32 | 54.80556 | 9.35306 | 29725 ft | 426 kts | 334° |
| 2026-05-06 18:33 | 54.83307 | 9.33324 | 29842 ft | 431 kts | 332° |
| 2026-05-06 18:33 | 54.85995 | 9.30968 | 30016 ft | 433 kts | 329° |
| 2026-05-06 18:33 | 54.88677 | 9.28588 | 30329 ft | 433 kts | 328° |
| 2026-05-06 18:33 | 54.91335 | 9.26147 | 30646 ft | 432 kts | 328° |
| 2026-05-06 18:34 | 54.93988 | 9.23712 | 30971 ft | 431 kts | 328° |
| 2026-05-06 18:34 | 54.96636 | 9.21276 | 31277 ft | 430 kts | 328° |
| 2026-05-06 18:34 | 54.99247 | 9.18870 | 31573 ft | 429 kts | 328° |
| 2026-05-06 18:34 | 55.01881 | 9.16442 | 31899 ft | 428 kts | 328° |
| 2026-05-06 18:35 | 55.04515 | 9.14010 | 32216 ft | 428 kts | 328° |
| 2026-05-06 18:35 | 55.07140 | 9.11582 | 32533 ft | 427 kts | 328° |
| 2026-05-06 18:35 | 55.09764 | 9.09155 | 32856 ft | 426 kts | 328° |
| 2026-05-06 18:35 | 55.12375 | 9.06733 | 33169 ft | 425 kts | 328° |
| 2026-05-06 18:36 | 55.14984 | 9.04312 | 33497 ft | 424 kts | 328° |
| 2026-05-06 18:36 | 55.16700 | 9.02716 | 33697 ft | 423 kts | 328° |
| 2026-05-06 18:36 | 55.19294 | 9.00274 | 33995 ft | 421 kts | 325° |
| 2026-05-06 18:36 | 55.21669 | 8.97336 | 34219 ft | 415 kts | 315° |
| 2026-05-06 18:37 | 55.24233 | 8.92469 | 34527 ft | 408 kts | 302° |
| 2026-05-06 18:37 | 55.25334 | 8.89730 | 34696 ft | 407 kts | 300° |
| 2026-05-06 18:37 | 55.27410 | 8.84257 | 35025 ft | 406 kts | 299° |
| 2026-05-06 18:37 | 55.28959 | 8.80114 | 35300 ft | 406 kts | 299° |
| 2026-05-06 18:38 | 55.30016 | 8.77393 | 35529 ft | 408 kts | 303° |
| 2026-05-06 18:38 | 55.31924 | 8.73672 | 35831 ft | 413 kts | 312° |
| 2026-05-06 18:38 | 55.34098 | 8.70346 | 36154 ft | 416 kts | 317° |
| 2026-05-06 18:38 | 55.36400 | 8.67261 | 36452 ft | 417 kts | 320° |
| 2026-05-06 18:39 | 55.38796 | 8.64352 | 36746 ft | 419 kts | 322° |
| 2026-05-06 18:39 | 55.41257 | 8.61591 | 37032 ft | 420 kts | 324° |
| 2026-05-06 18:39 | 55.43762 | 8.58926 | 37316 ft | 421 kts | 325° |
| 2026-05-06 18:40 | 55.48811 | 8.53695 | 37828 ft | 419 kts | 325° |
| 2026-05-06 18:40 | 55.53889 | 8.48927 | 37952 ft | 421 kts | 330° |
| 2026-05-06 18:41 | 55.59256 | 8.44428 | 37982 ft | 432 kts | 330° |
| 2026-05-06 18:41 | 55.64657 | 8.39943 | 37960 ft | 427 kts | 330° |
| 2026-05-06 18:42 | 55.70045 | 8.35452 | 37967 ft | 428 kts | 330° |
| 2026-05-06 18:42 | 55.75431 | 8.30948 | 37959 ft | 428 kts | 330° |
| 2026-05-06 18:43 | 55.80778 | 8.26462 | 37963 ft | 428 kts | 330° |
| 2026-05-06 18:43 | 55.86156 | 8.21937 | 37973 ft | 428 kts | 330° |
| 2026-05-06 18:44 | 55.91531 | 8.17400 | 37981 ft | 428 kts | 330° |
| 2026-05-06 18:44 | 55.96903 | 8.12852 | 37977 ft | 427 kts | 330° |
| 2026-05-06 18:45 | 56.02268 | 8.08293 | 37991 ft | 427 kts | 330° |
| 2026-05-06 18:45 | 56.07632 | 8.03724 | 37987 ft | 427 kts | 330° |
| 2026-05-06 18:46 | 56.12954 | 7.99175 | 37997 ft | 427 kts | 330° |
| 2026-05-06 18:46 | 56.18309 | 7.94585 | 37996 ft | 426 kts | 330° |
| 2026-05-06 18:47 | 56.23651 | 7.89991 | 38002 ft | 426 kts | 329° |
| 2026-05-06 18:47 | 56.28996 | 7.85380 | 38005 ft | 426 kts | 329° |
| 2026-05-06 18:48 | 56.34341 | 7.80755 | 38002 ft | 426 kts | 329° |
| 2026-05-06 18:48 | 56.39683 | 7.76117 | 38007 ft | 426 kts | 329° |
| 2026-05-06 18:49 | 56.45020 | 7.71472 | 38001 ft | 426 kts | 329° |
| 2026-05-06 18:49 | 56.50347 | 7.66817 | 38014 ft | 425 kts | 329° |
| 2026-05-06 18:50 | 56.55643 | 7.62177 | 38007 ft | 425 kts | 329° |
| 2026-05-06 18:50 | 56.60962 | 7.57502 | 38010 ft | 425 kts | 329° |
| 2026-05-06 18:51 | 56.66288 | 7.52806 | 38008 ft | 425 kts | 329° |
| 2026-05-06 18:51 | 56.71596 | 7.48110 | 38008 ft | 425 kts | 329° |
| 2026-05-06 18:52 | 56.76911 | 7.43395 | 38010 ft | 424 kts | 329° |
| 2026-05-06 18:52 | 56.82175 | 7.38709 | 38010 ft | 424 kts | 329° |
| 2026-05-06 18:53 | 56.87476 | 7.33975 | 38013 ft | 424 kts | 329° |
| 2026-05-06 18:53 | 56.92769 | 7.29234 | 38007 ft | 423 kts | 329° |
| 2026-05-06 18:54 | 56.98090 | 7.24567 | 38012 ft | 425 kts | 332° |
| 2026-05-06 18:54 | 57.03659 | 7.20786 | 38017 ft | 429 kts | 338° |
| 2026-05-06 18:55 | 57.09327 | 7.17611 | 38013 ft | 429 kts | 338° |
| 2026-05-06 18:55 | 57.15039 | 7.14464 | 38015 ft | 429 kts | 339° |
| 2026-05-06 18:56 | 57.20751 | 7.11309 | 38012 ft | 428 kts | 338° |
| 2026-05-06 18:56 | 57.26457 | 7.08147 | 38011 ft | 428 kts | 338° |
| 2026-05-06 18:57 | 57.32113 | 7.05001 | 38010 ft | 428 kts | 338° |
| 2026-05-06 18:57 | 57.37817 | 7.01816 | 38010 ft | 427 kts | 338° |
| 2026-05-06 18:58 | 57.43502 | 6.98634 | 38010 ft | 427 kts | 338° |
| 2026-05-06 18:58 | 57.49189 | 6.95440 | 38008 ft | 427 kts | 338° |
| 2026-05-06 18:59 | 57.54881 | 6.92232 | 38007 ft | 427 kts | 338° |
| 2026-05-06 18:59 | 57.60558 | 6.89021 | 38008 ft | 427 kts | 338° |
| 2026-05-06 19:00 | 57.66200 | 6.85821 | 38010 ft | 426 kts | 338° |
| 2026-05-06 19:00 | 57.71848 | 6.82455 | 38011 ft | 423 kts | 334° |
| 2026-05-06 19:01 | 57.76945 | 6.77241 | 38018 ft | 417 kts | 322° |
| 2026-05-06 19:01 | 57.81826 | 6.71390 | 38007 ft | 419 kts | 328° |
| 2026-05-06 19:02 | 57.86968 | 6.66297 | 38016 ft | 414 kts | 318° |
| 2026-05-06 19:02 | 57.90792 | 6.58576 | 38021 ft | 404 kts | 300° |
| 2026-05-06 19:03 | 57.93825 | 6.49676 | 38011 ft | 404 kts | 302° |
| 2026-05-06 19:03 | 57.95673 | 6.45652 | 38029 ft | 409 kts | 313° |
| 2026-05-06 19:03 | 57.97906 | 6.42291 | 38030 ft | 415 kts | 323° |
| 2026-05-06 19:04 | 58.03197 | 6.37685 | 38024 ft | 423 kts | 335° |
| 2026-05-06 19:04 | 58.08704 | 6.33753 | 38025 ft | 422 kts | 333° |
| 2026-05-06 19:05 | 58.14076 | 6.29547 | 38035 ft | 421 kts | 332° |
| 2026-05-06 19:05 | 58.19446 | 6.25167 | 38027 ft | 419 kts | 329° |
| 2026-05-06 19:06 | 58.24574 | 6.20036 | 37511 ft | 416 kts | 327° |
| 2026-05-06 19:06 | 58.27128 | 6.17388 | 36728 ft | 417 kts | 326° |
| 2026-05-06 19:06 | 58.29662 | 6.14760 | 36027 ft | 415 kts | 326° |
| 2026-05-06 19:06 | 58.32184 | 6.12136 | 35429 ft | 411 kts | 326° |
| 2026-05-06 19:07 | 58.34677 | 6.09540 | 35048 ft | 403 kts | 325° |
| 2026-05-06 19:07 | 58.37124 | 6.06984 | 34683 ft | 402 kts | 325° |
| 2026-05-06 19:07 | 58.39553 | 6.04444 | 34332 ft | 407 kts | 325° |
| 2026-05-06 19:07 | 58.42040 | 6.01847 | 34161 ft | 406 kts | 325° |
| 2026-05-06 19:08 | 58.44524 | 5.99244 | 34107 ft | 407 kts | 325° |
| 2026-05-06 19:08 | 58.49483 | 5.94039 | 34058 ft | 407 kts | 325° |
| 2026-05-06 19:09 | 58.54439 | 5.88820 | 34048 ft | 406 kts | 324° |
| 2026-05-06 19:09 | 58.59351 | 5.83630 | 34050 ft | 405 kts | 324° |
| 2026-05-06 19:10 | 58.64273 | 5.78411 | 34045 ft | 404 kts | 324° |
| 2026-05-06 19:10 | 58.69190 | 5.73182 | 34047 ft | 404 kts | 324° |
| 2026-05-06 19:11 | 58.74107 | 5.67936 | 34051 ft | 403 kts | 324° |
| 2026-05-06 19:11 | 58.79003 | 5.62696 | 34055 ft | 403 kts | 324° |
| 2026-05-06 19:12 | 58.83895 | 5.57440 | 34053 ft | 402 kts | 324° |
| 2026-05-06 19:12 | 58.88744 | 5.52217 | 34047 ft | 401 kts | 324° |
| 2026-05-06 19:13 | 58.93612 | 5.46955 | 34056 ft | 401 kts | 324° |
| 2026-05-06 19:13 | 58.98476 | 5.41681 | 34048 ft | 401 kts | 324° |
| 2026-05-06 19:14 | 59.03335 | 5.36392 | 34060 ft | 400 kts | 324° |
| 2026-05-06 19:14 | 59.08193 | 5.31091 | 33769 ft | 400 kts | 324° |
| 2026-05-06 19:14 | 59.10621 | 5.28437 | 33373 ft | 400 kts | 324° |
| 2026-05-06 19:15 | 59.13038 | 5.25786 | 32970 ft | 399 kts | 324° |
| 2026-05-06 19:15 | 59.15460 | 5.23127 | 32577 ft | 400 kts | 323° |
| 2026-05-06 19:15 | 59.17887 | 5.20456 | 32203 ft | 400 kts | 323° |
| 2026-05-06 19:15 | 59.20284 | 5.17819 | 31837 ft | 401 kts | 323° |
| 2026-05-06 19:16 | 59.22712 | 5.15137 | 31454 ft | 401 kts | 323° |
| 2026-05-06 19:16 | 59.25144 | 5.12451 | 31093 ft | 402 kts | 323° |
| 2026-05-06 19:16 | 59.27575 | 5.09760 | 30730 ft | 402 kts | 322° |
| 2026-05-06 19:16 | 59.30011 | 5.07060 | 30373 ft | 402 kts | 322° |
| 2026-05-06 19:17 | 59.32445 | 5.04356 | 29992 ft | 402 kts | 322° |
| 2026-05-06 19:17 | 59.34874 | 5.01650 | 29557 ft | 401 kts | 322° |
| 2026-05-06 19:17 | 59.37296 | 4.98964 | 29135 ft | 399 kts | 323° |
| 2026-05-06 19:17 | 59.39855 | 4.96779 | 28702 ft | 405 kts | 333° |
| 2026-05-06 19:18 | 59.42623 | 4.95547 | 28284 ft | 413 kts | 344° |
| 2026-05-06 19:18 | 59.45506 | 4.95220 | 27876 ft | 417 kts | 351° |
| 2026-05-06 19:18 | 59.48408 | 4.95227 | 27475 ft | 415 kts | 351° |
| 2026-05-06 19:18 | 59.51251 | 4.94925 | 27073 ft | 406 kts | 346° |
| 2026-05-06 19:19 | 59.54026 | 4.94533 | 26685 ft | 403 kts | 346° |
| 2026-05-06 19:19 | 59.56809 | 4.94071 | 26289 ft | 400 kts | 346° |
| 2026-05-06 19:19 | 59.59573 | 4.93621 | 25904 ft | 397 kts | 346° |
| 2026-05-06 19:19 | 59.62304 | 4.93167 | 25526 ft | 393 kts | 346° |
| 2026-05-06 19:20 | 59.65025 | 4.92717 | 25146 ft | 390 kts | 346° |
| 2026-05-06 19:20 | 59.67716 | 4.92271 | 24773 ft | 385 kts | 346° |
| 2026-05-06 19:20 | 59.70343 | 4.91842 | 24396 ft | 373 kts | 345° |
| 2026-05-06 19:20 | 59.72898 | 4.91416 | 24023 ft | 364 kts | 345° |
| 2026-05-06 19:21 | 59.75415 | 4.91037 | 23568 ft | 364 kts | 346° |
| 2026-05-06 19:21 | 59.77920 | 4.90562 | 22991 ft | 358 kts | 342° |
| 2026-05-06 19:21 | 59.80342 | 4.89899 | 22444 ft | 355 kts | 343° |
| 2026-05-06 19:21 | 59.82783 | 4.89224 | 21897 ft | 351 kts | 342° |
| 2026-05-06 19:22 | 59.85180 | 4.88540 | 21267 ft | 343 kts | 342° |
| 2026-05-06 19:22 | 59.87535 | 4.87862 | 19724 ft | 340 kts | 343° |
| 2026-05-06 19:22 | 59.89850 | 4.87199 | 18445 ft | 334 kts | 344° |
| 2026-05-06 19:22 | 59.92134 | 4.86549 | 17062 ft | 327 kts | 344° |
| 2026-05-06 19:23 | 59.94358 | 4.85914 | 15751 ft | 320 kts | 345° |
| 2026-05-06 19:23 | 59.96551 | 4.85283 | 14502 ft | 314 kts | 345° |
| 2026-05-06 19:23 | 59.98693 | 4.84669 | 13218 ft | 309 kts | 346° |
| 2026-05-06 19:23 | 60.00803 | 4.84062 | 11905 ft | 304 kts | 347° |
| 2026-05-06 19:24 | 60.02873 | 4.83469 | 10672 ft | 299 kts | 348° |
| 2026-05-06 19:24 | 60.04926 | 4.82884 | 10294 ft | 298 kts | 349° |
| 2026-05-06 19:24 | 60.06953 | 4.82308 | 10179 ft | 299 kts | 349° |
| 2026-05-06 19:24 | 60.09008 | 4.81716 | 10109 ft | 299 kts | 349° |
| 2026-05-06 19:25 | 60.11065 | 4.81120 | 10070 ft | 299 kts | 349° |
| 2026-05-06 19:25 | 60.13122 | 4.80526 | 10057 ft | 299 kts | 349° |
| 2026-05-06 19:25 | 60.15182 | 4.79928 | 10050 ft | 299 kts | 349° |
| 2026-05-06 19:25 | 60.17242 | 4.79331 | 10052 ft | 299 kts | 349° |
| 2026-05-06 19:26 | 60.19298 | 4.78735 | 10057 ft | 299 kts | 349° |
| 2026-05-06 19:26 | 60.21359 | 4.78137 | 10053 ft | 299 kts | 349° |
| 2026-05-06 19:26 | 60.23416 | 4.77537 | 10049 ft | 299 kts | 349° |
| 2026-05-06 19:26 | 60.25478 | 4.76937 | 10051 ft | 299 kts | 349° |
| 2026-05-06 19:27 | 60.27533 | 4.76338 | 10054 ft | 300 kts | 349° |
| 2026-05-06 19:27 | 60.29575 | 4.75743 | 10047 ft | 300 kts | 349° |
| 2026-05-06 19:27 | 60.31643 | 4.75138 | 10046 ft | 300 kts | 349° |
| 2026-05-06 19:27 | 60.33706 | 4.74534 | 10053 ft | 300 kts | 349° |
| 2026-05-06 19:28 | 60.35773 | 4.73930 | 10047 ft | 300 kts | 349° |
| 2026-05-06 19:28 | 60.37841 | 4.73576 | 9439 ft | 295 kts | 0° |
| 2026-05-06 19:28 | 60.39817 | 4.74746 | 8076 ft | 301 kts | 28° |
| 2026-05-06 19:28 | 60.41305 | 4.77651 | 7260 ft | 300 kts | 58° |
| 2026-05-06 19:29 | 60.41950 | 4.81701 | 7119 ft | 305 kts | 86° |
| 2026-05-06 19:29 | 60.41686 | 4.85912 | 7067 ft | 303 kts | 101° |
| 2026-05-06 19:29 | 60.41699 | 4.90141 | 7016 ft | 304 kts | 76° |
| 2026-05-06 19:29 | 60.42657 | 4.93897 | 7000 ft | 302 kts | 46° |
| 2026-05-06 19:30 | 60.44350 | 4.96304 | 6994 ft | 298 kts | 19° |
| 2026-05-06 19:30 | 60.46357 | 4.97170 | 7011 ft | 295 kts | 5° |
| 2026-05-06 19:30 | 60.48368 | 4.97618 | 7012 ft | 293 kts | 3° |
| 2026-05-06 19:30 | 60.50334 | 4.97963 | 6931 ft | 275 kts | 2° |
| 2026-05-06 19:31 | 60.52168 | 4.98267 | 6437 ft | 256 kts | 2° |
| 2026-05-06 19:31 | 60.53898 | 4.98573 | 5883 ft | 244 kts | 4° |
| 2026-05-06 19:31 | 60.57169 | 4.99203 | 4823 ft | 231 kts | 2° |
| 2026-05-06 19:32 | 60.58769 | 4.99468 | 4258 ft | 230 kts | 1° |
| 2026-05-06 19:32 | 60.60380 | 4.99261 | 4161 ft | 232 kts | 349° |
| 2026-05-06 19:32 | 60.61959 | 4.99514 | 4074 ft | 231 kts | 19° |
| 2026-05-06 19:32 | 60.63209 | 5.01532 | 4023 ft | 234 kts | 55° |
| 2026-05-06 19:33 | 60.63681 | 5.04674 | 3999 ft | 236 kts | 91° |
| 2026-05-06 19:33 | 60.63202 | 5.07802 | 4005 ft | 234 kts | 126° |
| 2026-05-06 19:33 | 60.62089 | 5.10127 | 4014 ft | 232 kts | 140° |
| 2026-05-06 19:33 | 60.60864 | 5.12286 | 4003 ft | 232 kts | 141° |
| 2026-05-06 19:34 | 60.59626 | 5.14384 | 3995 ft | 232 kts | 142° |
| 2026-05-06 19:34 | 60.58374 | 5.16456 | 3997 ft | 231 kts | 146° |
| 2026-05-06 19:34 | 60.56905 | 5.17630 | 3988 ft | 227 kts | 177° |
| 2026-05-06 19:34 | 60.55387 | 5.17051 | 4001 ft | 223 kts | 205° |
| 2026-05-06 19:35 | 60.53972 | 5.15754 | 3866 ft | 221 kts | 204° |
| 2026-05-06 19:35 | 60.52495 | 5.14760 | 3280 ft | 226 kts | 195° |
| 2026-05-06 19:35 | 60.50931 | 5.14627 | 3087 ft | 225 kts | 175° |
| 2026-05-06 19:35 | 60.49379 | 5.15126 | 2864 ft | 226 kts | 173° |
| 2026-05-06 19:36 | 60.47824 | 5.15553 | 2633 ft | 224 kts | 173° |
| 2026-05-06 19:36 | 60.46313 | 5.16060 | 2505 ft | 211 kts | 171° |
| 2026-05-06 19:36 | 60.44944 | 5.16544 | 2420 ft | 195 kts | 173° |
| 2026-05-06 19:36 | 60.43684 | 5.16958 | 2372 ft | 171 kts | 173° |
| 2026-05-06 19:37 | 60.42551 | 5.17340 | 2410 ft | 162 kts | 173° |
| 2026-05-06 19:37 | 60.41441 | 5.17723 | 2422 ft | 164 kts | 173° |
| 2026-05-06 19:37 | 60.40313 | 5.18102 | 2263 ft | 165 kts | 173° |
| 2026-05-06 19:37 | 60.39566 | 5.18351 | 2114 ft | 164 kts | 172° |
| 2026-05-06 19:38 | 60.38076 | 5.18867 | 1813 ft | 155 kts | 172° |
| 2026-05-06 19:38 | 60.37064 | 5.19200 | 1571 ft | 140 kts | 173° |
| 2026-05-06 19:38 | 60.36151 | 5.19505 | 1367 ft | 126 kts | 173° |
| 2026-05-06 19:38 | 60.35306 | 5.19798 | 1177 ft | 120 kts | 173° |
| 2026-05-06 19:39 | 60.34510 | 5.20069 | 1021 ft | 113 kts | 173° |
| 2026-05-06 19:39 | 60.33745 | 5.20327 | 871 ft | 113 kts | 173° |
| 2026-05-06 19:39 | 60.32964 | 5.20589 | 751 ft | 114 kts | 173° |
| 2026-05-06 19:39 | 60.32181 | 5.20853 | 598 ft | 114 kts | 173° |
| 2026-05-06 19:40 | 60.31401 | 5.21119 | 436 ft | 113 kts | 173° |
| 2026-05-06 19:40 | 60.30589 | 5.21401 | 538 ft | 128 kts | 171° |
| 2026-05-06 19:40 | 60.29702 | 5.21734 | 1263 ft | 135 kts | 171° |
| 2026-05-06 19:40 | 60.28729 | 5.22078 | 1918 ft | 151 kts | 171° |
| 2026-05-06 19:41 | 60.27611 | 5.22494 | 2533 ft | 179 kts | 171° |
| 2026-05-06 19:41 | 60.26493 | 5.22912 | 2701 ft | 153 kts | 171° |
| 2026-05-06 19:41 | 60.25501 | 5.23340 | 2610 ft | 137 kts | 169° |
| 2026-05-06 19:41 | 60.24571 | 5.23579 | 2414 ft | 148 kts | 179° |
| 2026-05-06 19:42 | 60.23366 | 5.23601 | 2513 ft | 178 kts | 185° |
| 2026-05-06 19:42 | 60.22217 | 5.23239 | 2445 ft | 159 kts | 200° |
| 2026-05-06 19:42 | 60.21347 | 5.22035 | 2214 ft | 153 kts | 227° |
| 2026-05-06 19:42 | 60.20592 | 5.20265 | 2182 ft | 182 kts | 230° |
| 2026-05-06 19:43 | 60.19747 | 5.18604 | 2243 ft | 160 kts | 220° |
| 2026-05-06 19:43 | 60.18857 | 5.17212 | 2182 ft | 176 kts | 220° |
| 2026-05-06 19:43 | 60.17891 | 5.15636 | 2154 ft | 181 kts | 221° |
| 2026-05-06 19:43 | 60.16924 | 5.14034 | 2274 ft | 177 kts | 222° |
| 2026-05-06 19:44 | 60.15961 | 5.12438 | 2734 ft | 180 kts | 222° |
| 2026-05-06 19:44 | 60.15191 | 5.10504 | 2918 ft | 182 kts | 254° |
| 2026-05-06 19:44 | 60.15286 | 5.08078 | 2960 ft | 178 kts | 299° |
| 2026-05-06 19:44 | 60.16178 | 5.06393 | 3009 ft | 179 kts | 324° |
| 2026-05-06 19:45 | 60.17219 | 5.05014 | 3006 ft | 179 kts | 327° |
| 2026-05-06 19:45 | 60.18272 | 5.03705 | 3011 ft | 179 kts | 327° |
| 2026-05-06 19:45 | 60.19335 | 5.02407 | 2999 ft | 178 kts | 328° |
| 2026-05-06 19:45 | 60.20398 | 5.01123 | 2996 ft | 178 kts | 328° |
| 2026-05-06 19:46 | 60.21463 | 4.99840 | 3006 ft | 179 kts | 327° |
| 2026-05-06 19:46 | 60.22533 | 4.98556 | 3007 ft | 179 kts | 327° |
| 2026-05-06 19:46 | 60.23602 | 4.97269 | 2998 ft | 179 kts | 327° |
| 2026-05-06 19:46 | 60.24644 | 4.96016 | 2999 ft | 179 kts | 327° |
| 2026-05-06 19:47 | 60.25720 | 4.94723 | 3000 ft | 178 kts | 327° |
| 2026-05-06 19:47 | 60.26784 | 4.93441 | 3006 ft | 179 kts | 327° |
| 2026-05-06 19:47 | 60.27854 | 4.92150 | 3000 ft | 179 kts | 327° |
| 2026-05-06 19:47 | 60.28923 | 4.90857 | 2995 ft | 179 kts | 327° |
| 2026-05-06 19:48 | 60.29987 | 4.89566 | 3000 ft | 179 kts | 327° |
| 2026-05-06 19:48 | 60.31027 | 4.88304 | 3007 ft | 179 kts | 327° |
| 2026-05-06 19:48 | 60.32092 | 4.87019 | 2998 ft | 178 kts | 327° |
| 2026-05-06 19:48 | 60.33160 | 4.85734 | 2996 ft | 179 kts | 327° |
| 2026-05-06 19:49 | 60.34224 | 4.84456 | 2996 ft | 179 kts | 327° |
| 2026-05-06 19:49 | 60.35286 | 4.83177 | 2997 ft | 180 kts | 327° |
| 2026-05-06 19:49 | 60.36357 | 4.81884 | 3000 ft | 179 kts | 327° |
| 2026-05-06 19:49 | 60.37429 | 4.80592 | 2993 ft | 179 kts | 327° |
| 2026-05-06 19:50 | 60.38499 | 4.79301 | 3005 ft | 180 kts | 327° |
| 2026-05-06 19:50 | 60.39573 | 4.78010 | 3002 ft | 179 kts | 327° |
| 2026-05-06 19:50 | 60.40649 | 4.76723 | 2999 ft | 179 kts | 327° |
| 2026-05-06 19:50 | 60.41757 | 4.75578 | 2983 ft | 182 kts | 343° |
| 2026-05-06 19:51 | 60.43010 | 4.75885 | 2988 ft | 187 kts | 21° |
| 2026-05-06 19:51 | 60.44182 | 4.77065 | 3010 ft | 188 kts | 25° |
| 2026-05-06 19:51 | 60.45335 | 4.78331 | 3007 ft | 188 kts | 26° |
| 2026-05-06 19:51 | 60.46474 | 4.79614 | 3001 ft | 188 kts | 27° |
| 2026-05-06 19:52 | 60.47615 | 4.80912 | 2992 ft | 188 kts | 27° |
| 2026-05-06 19:52 | 60.48749 | 4.82200 | 2999 ft | 188 kts | 27° |
| 2026-05-06 19:52 | 60.49894 | 4.83501 | 2999 ft | 188 kts | 27° |
| 2026-05-06 19:52 | 60.51037 | 4.84799 | 2993 ft | 189 kts | 27° |
| 2026-05-06 19:53 | 60.52180 | 4.86095 | 2998 ft | 189 kts | 27° |
| 2026-05-06 19:53 | 60.53326 | 4.87398 | 2993 ft | 189 kts | 27° |
| 2026-05-06 19:53 | 60.54351 | 4.89039 | 2973 ft | 191 kts | 56° |
| 2026-05-06 19:53 | 60.54820 | 4.91564 | 2997 ft | 192 kts | 74° |
| 2026-05-06 19:54 | 60.55146 | 4.94186 | 3008 ft | 192 kts | 76° |
| 2026-05-06 19:54 | 60.55446 | 4.96815 | 2997 ft | 192 kts | 77° |
| 2026-05-06 19:54 | 60.55741 | 4.99473 | 2993 ft | 191 kts | 77° |
| 2026-05-06 19:54 | 60.56029 | 5.02107 | 2994 ft | 191 kts | 77° |
| 2026-05-06 19:55 | 60.56195 | 5.04781 | 3001 ft | 191 kts | 86° |
| 2026-05-06 19:55 | 60.56288 | 5.07443 | 2999 ft | 191 kts | 86° |
| 2026-05-06 19:55 | 60.56305 | 5.10131 | 2986 ft | 190 kts | 101° |
| 2026-05-06 19:55 | 60.55680 | 5.12418 | 2984 ft | 187 kts | 142° |
| 2026-05-06 19:56 | 60.54491 | 5.13343 | 2998 ft | 185 kts | 174° |
| 2026-05-06 19:56 | 60.53214 | 5.13651 | 3010 ft | 186 kts | 172° |
| 2026-05-06 19:56 | 60.51950 | 5.14158 | 3000 ft | 185 kts | 171° |
| 2026-05-06 19:56 | 60.50690 | 5.14583 | 2984 ft | 177 kts | 173° |
| 2026-05-06 19:57 | 60.49541 | 5.14957 | 2970 ft | 161 kts | 173° |
| 2026-05-06 19:57 | 60.48445 | 5.15344 | 3042 ft | 162 kts | 172° |
| 2026-05-06 19:57 | 60.47322 | 5.15725 | 3075 ft | 165 kts | 173° |
| 2026-05-06 19:57 | 60.46181 | 5.16107 | 2955 ft | 167 kts | 173° |
| 2026-05-06 19:58 | 60.45051 | 5.16497 | 2687 ft | 167 kts | 172° |
| 2026-05-06 19:58 | 60.43950 | 5.16872 | 2514 ft | 163 kts | 172° |
| 2026-05-06 19:58 | 60.42830 | 5.17253 | 2466 ft | 163 kts | 172° |
| 2026-05-06 19:58 | 60.41711 | 5.17631 | 2432 ft | 163 kts | 172° |
| 2026-05-06 19:59 | 60.40587 | 5.18013 | 2299 ft | 164 kts | 172° |
| 2026-05-06 19:59 | 60.39463 | 5.18390 | 2109 ft | 163 kts | 172° |
| 2026-05-06 19:59 | 60.38344 | 5.18776 | 1897 ft | 163 kts | 172° |
| 2026-05-06 19:59 | 60.37238 | 5.19147 | 1674 ft | 156 kts | 172° |
| 2026-05-06 20:00 | 60.36229 | 5.19485 | 1437 ft | 139 kts | 172° |
| 2026-05-06 20:00 | 60.35320 | 5.19793 | 1231 ft | 126 kts | 172° |
| 2026-05-06 20:00 | 60.34489 | 5.20075 | 1032 ft | 117 kts | 172° |
| 2026-05-06 20:00 | 60.33695 | 5.20345 | 869 ft | 113 kts | 172° |
| 2026-05-06 20:01 | 60.32946 | 5.20598 | 706 ft | 110 kts | 170° |
| 2026-05-06 20:01 | 60.32195 | 5.20855 | 528 ft | 109 kts | 170° |
| 2026-05-06 20:01 | 60.31454 | 5.21127 | 385 ft | 108 kts | 171° |
| 2026-05-06 20:01 | 60.30708 | 5.21370 | 250 ft | 108 kts | 171° |
| 2026-05-06 20:02 | 60.29980 | 5.21608 | 175 ft | 97 kts | 170° |
| 2026-05-06 20:02 | 60.29512 | 5.21766 | 165 ft | 45 kts | 171° |
| 2026-05-06 20:02 | 60.29257 | 5.21856 | 163 ft | 37 kts | 169° |
| 2026-05-06 20:02 | 60.29006 | 5.21938 | 161 ft | 36 kts | 172° |
| 2026-05-06 20:03 | 60.28921 | 5.22018 | 159 ft | 8 kts | 105° |
| 2026-05-06 20:03 | 60.28921 | 5.22135 | 160 ft | 8 kts | 84° |
| 2026-05-06 20:03 | 60.28923 | 5.22161 | 160 ft | 0 kts | 80° |
| 2026-05-06 20:04 | 60.28927 | 5.22203 | 160 ft | 8 kts | 81° |
| 2026-05-06 20:05 | 60.28946 | 5.22351 | 161 ft | 11 kts | 58° |
| 2026-05-06 20:05 | 60.28997 | 5.22385 | 161 ft | 6 kts | 353° |
| 2026-05-06 20:05 | 60.29011 | 5.22407 | 161 ft | 2 kts | 84° |
| 2026-05-06 20:05 | 60.28994 | 5.22429 | 161 ft | 8 kts | 161° |
| 2026-05-06 20:06 | 60.28953 | 5.22454 | 161 ft | 0 kts | 106° |
| 2026-05-06 20:06 | 60.28949 | 5.22467 | 161 ft | 2 kts | 116° |
| 2026-05-06 20:06 | 60.28942 | 5.22493 | 161 ft | 2 kts | 110° |